sensor_id;sensor_type;location;lat;lon;timestamp;temperature;humidity
68578;SHT31;61668;45.388;11.784;2022-10-31T00:02:05;15.04;80.50
68578;SHT31;61668;45.388;11.784;2022-10-31T00:04:30;15.00;80.46
68578;SHT31;61668;45.388;11.784;2022-10-31T00:06:57;14.98;80.42
68578;SHT31;61668;45.388;11.784;2022-10-31T00:09:22;14.94;80.46
68578;SHT31;61668;45.388;11.784;2022-10-31T00:11:48;14.90;80.40
68578;SHT31;61668;45.388;11.784;2022-10-31T00:14:13;14.86;80.52
68578;SHT31;61668;45.388;11.784;2022-10-31T00:16:39;14.83;80.57
68578;SHT31;61668;45.388;11.784;2022-10-31T00:19:06;14.78;80.63
68578;SHT31;61668;45.388;11.784;2022-10-31T00:21:33;14.76;80.70
68578;SHT31;61668;45.388;11.784;2022-10-31T00:24:00;14.75;80.57
68578;SHT31;61668;45.388;11.784;2022-10-31T00:26:26;14.73;80.48
68578;SHT31;61668;45.388;11.784;2022-10-31T00:28:53;14.70;80.49
68578;SHT31;61668;45.388;11.784;2022-10-31T00:31:19;14.69;80.49
68578;SHT31;61668;45.388;11.784;2022-10-31T00:33:44;14.67;80.50
68578;SHT31;61668;45.388;11.784;2022-10-31T00:36:14;14.64;80.42
68578;SHT31;61668;45.388;11.784;2022-10-31T00:38:43;14.61;80.34
68578;SHT31;61668;45.388;11.784;2022-10-31T00:41:09;14.56;80.40
68578;SHT31;61668;45.388;11.784;2022-10-31T00:43:36;14.53;80.50
68578;SHT31;61668;45.388;11.784;2022-10-31T00:46:02;14.49;80.50
68578;SHT31;61668;45.388;11.784;2022-10-31T00:48:28;14.47;80.53
68578;SHT31;61668;45.388;11.784;2022-10-31T00:50:54;14.45;80.52
68578;SHT31;61668;45.388;11.784;2022-10-31T00:53:20;14.43;80.43
68578;SHT31;61668;45.388;11.784;2022-10-31T00:55:45;14.38;80.46
68578;SHT31;61668;45.388;11.784;2022-10-31T00:58:12;14.38;80.58
68578;SHT31;61668;45.388;11.784;2022-10-31T01:00:37;14.34;80.61
68578;SHT31;61668;45.388;11.784;2022-10-31T01:03:03;14.32;80.64
68578;SHT31;61668;45.388;11.784;2022-10-31T01:05:28;14.30;80.63
68578;SHT31;61668;45.388;11.784;2022-10-31T01:07:54;14.29;80.66
68578;SHT31;61668;45.388;11.784;2022-10-31T01:10:19;14.26;80.60
68578;SHT31;61668;45.388;11.784;2022-10-31T01:12:46;14.23;80.61
68578;SHT31;61668;45.388;11.784;2022-10-31T01:15:14;14.19;80.56
68578;SHT31;61668;45.388;11.784;2022-10-31T01:17:44;14.16;80.55
68578;SHT31;61668;45.388;11.784;2022-10-31T01:20:10;14.14;80.60
68578;SHT31;61668;45.388;11.784;2022-10-31T01:22:37;14.11;80.57
68578;SHT31;61668;45.388;11.784;2022-10-31T01:25:03;14.09;80.67
68578;SHT31;61668;45.388;11.784;2022-10-31T01:27:30;14.07;80.74
68578;SHT31;61668;45.388;11.784;2022-10-31T01:29:56;14.07;80.84
68578;SHT31;61668;45.388;11.784;2022-10-31T01:32:22;14.06;80.79
68578;SHT31;61668;45.388;11.784;2022-10-31T01:34:48;14.04;80.78
68578;SHT31;61668;45.388;11.784;2022-10-31T01:39:55;14.00;80.70
68578;SHT31;61668;45.388;11.784;2022-10-31T01:42:22;13.99;80.79
68578;SHT31;61668;45.388;11.784;2022-10-31T01:44:52;13.98;80.69
68578;SHT31;61668;45.388;11.784;2022-10-31T01:47:29;13.96;80.50
68578;SHT31;61668;45.388;11.784;2022-10-31T01:50:03;13.92;80.48
68578;SHT31;61668;45.388;11.784;2022-10-31T01:52:56;13.88;80.47
68578;SHT31;61668;45.388;11.784;2022-10-31T01:55:25;13.85;80.50
68578;SHT31;61668;45.388;11.784;2022-10-31T01:57:59;13.84;80.50
68578;SHT31;61668;45.388;11.784;2022-10-31T02:00:32;13.81;80.53
68578;SHT31;61668;45.388;11.784;2022-10-31T02:02:58;13.79;80.53
68578;SHT31;61668;45.388;11.784;2022-10-31T02:05:25;13.77;80.50
68578;SHT31;61668;45.388;11.784;2022-10-31T02:07:58;13.76;80.55
68578;SHT31;61668;45.388;11.784;2022-10-31T02:10:49;13.73;80.58
68578;SHT31;61668;45.388;11.784;2022-10-31T02:13:14;13.73;80.69
68578;SHT31;61668;45.388;11.784;2022-10-31T02:15:40;13.72;80.68
68578;SHT31;61668;45.388;11.784;2022-10-31T02:18:09;13.70;80.61
68578;SHT31;61668;45.388;11.784;2022-10-31T02:20:40;13.68;80.61
68578;SHT31;61668;45.388;11.784;2022-10-31T02:31:41;13.62;80.69
68578;SHT31;61668;45.388;11.784;2022-10-31T02:36:58;13.54;80.93
68578;SHT31;61668;45.388;11.784;2022-10-31T02:39:35;13.53;80.91
68578;SHT31;61668;45.388;11.784;2022-10-31T02:47:28;13.49;80.81
68578;SHT31;61668;45.388;11.784;2022-10-31T02:52:36;13.45;80.73
68578;SHT31;61668;45.388;11.784;2022-10-31T02:57:49;13.41;80.70
68578;SHT31;61668;45.388;11.784;2022-10-31T03:00:18;13.40;80.80
68578;SHT31;61668;45.388;11.784;2022-10-31T03:08:29;13.35;80.81
68578;SHT31;61668;45.388;11.784;2022-10-31T03:11:03;13.32;80.83
68578;SHT31;61668;45.388;11.784;2022-10-31T03:13:41;13.29;80.95
68578;SHT31;61668;45.388;11.784;2022-10-31T03:16:49;13.28;81.01
68578;SHT31;61668;45.388;11.784;2022-10-31T03:19:18;13.26;81.06
68578;SHT31;61668;45.388;11.784;2022-10-31T03:22:23;13.26;81.03
68578;SHT31;61668;45.388;11.784;2022-10-31T03:24:53;13.24;80.90
68578;SHT31;61668;45.388;11.784;2022-10-31T03:27:25;13.22;80.91
68578;SHT31;61668;45.388;11.784;2022-10-31T03:29:54;13.21;81.03
68578;SHT31;61668;45.388;11.784;2022-10-31T03:32:27;13.19;81.10
68578;SHT31;61668;45.388;11.784;2022-10-31T03:34:59;13.17;81.19
68578;SHT31;61668;45.388;11.784;2022-10-31T03:37:28;13.16;81.20
68578;SHT31;61668;45.388;11.784;2022-10-31T03:39:58;13.14;81.29
68578;SHT31;61668;45.388;11.784;2022-10-31T03:42:27;13.12;81.33
68578;SHT31;61668;45.388;11.784;2022-10-31T03:47:25;13.06;81.30
68578;SHT31;61668;45.388;11.784;2022-10-31T03:49:51;13.02;81.31
68578;SHT31;61668;45.388;11.784;2022-10-31T03:55:19;12.95;81.44
68578;SHT31;61668;45.388;11.784;2022-10-31T03:58:13;12.92;81.47
68578;SHT31;61668;45.388;11.784;2022-10-31T04:01:04;12.90;81.47
68578;SHT31;61668;45.388;11.784;2022-10-31T04:03:33;12.88;81.42
68578;SHT31;61668;45.388;11.784;2022-10-31T04:06:05;12.87;81.41
68578;SHT31;61668;45.388;11.784;2022-10-31T04:08:36;12.83;81.50
68578;SHT31;61668;45.388;11.784;2022-10-31T04:11:07;12.80;81.62
68578;SHT31;61668;45.388;11.784;2022-10-31T04:13:34;12.78;81.75
68578;SHT31;61668;45.388;11.784;2022-10-31T04:16:02;12.76;81.70
68578;SHT31;61668;45.388;11.784;2022-10-31T04:18:29;12.75;81.70
68578;SHT31;61668;45.388;11.784;2022-10-31T04:21:01;12.75;81.71
68578;SHT31;61668;45.388;11.784;2022-10-31T04:23:32;12.74;81.70
68578;SHT31;61668;45.388;11.784;2022-10-31T04:25:59;12.74;81.72
68578;SHT31;61668;45.388;11.784;2022-10-31T04:28:25;12.73;81.70
68578;SHT31;61668;45.388;11.784;2022-10-31T04:30:51;12.72;81.71
68578;SHT31;61668;45.388;11.784;2022-10-31T04:33:17;12.70;81.82
68578;SHT31;61668;45.388;11.784;2022-10-31T04:35:44;12.70;81.81
68578;SHT31;61668;45.388;11.784;2022-10-31T04:38:09;12.69;81.90
68578;SHT31;61668;45.388;11.784;2022-10-31T04:40:35;12.68;81.92
68578;SHT31;61668;45.388;11.784;2022-10-31T04:43:00;12.68;81.92
68578;SHT31;61668;45.388;11.784;2022-10-31T04:45:26;12.68;81.92
68578;SHT31;61668;45.388;11.784;2022-10-31T04:47:51;12.67;81.97
68578;SHT31;61668;45.388;11.784;2022-10-31T04:50:17;12.67;82.17
68578;SHT31;61668;45.388;11.784;2022-10-31T04:52:42;12.66;82.36
68578;SHT31;61668;45.388;11.784;2022-10-31T04:55:10;12.64;82.52
68578;SHT31;61668;45.388;11.784;2022-10-31T04:57:43;12.63;82.62
68578;SHT31;61668;45.388;11.784;2022-10-31T05:00:11;12.62;82.70
68578;SHT31;61668;45.388;11.784;2022-10-31T05:02:46;12.63;82.62
68578;SHT31;61668;45.388;11.784;2022-10-31T05:05:20;12.63;82.52
68578;SHT31;61668;45.388;11.784;2022-10-31T05:07:48;12.63;82.48
68578;SHT31;61668;45.388;11.784;2022-10-31T05:10:17;12.63;82.38
68578;SHT31;61668;45.388;11.784;2022-10-31T05:12:46;12.60;82.29
68578;SHT31;61668;45.388;11.784;2022-10-31T05:15:23;12.60;82.20
68578;SHT31;61668;45.388;11.784;2022-10-31T05:17:50;12.59;82.17
68578;SHT31;61668;45.388;11.784;2022-10-31T05:20:18;12.58;82.01
68578;SHT31;61668;45.388;11.784;2022-10-31T05:22:45;12.55;81.89
68578;SHT31;61668;45.388;11.784;2022-10-31T05:25:13;12.54;81.86
68578;SHT31;61668;45.388;11.784;2022-10-31T05:27:43;12.52;81.94
68578;SHT31;61668;45.388;11.784;2022-10-31T05:30:12;12.51;82.03
68578;SHT31;61668;45.388;11.784;2022-10-31T05:32:43;12.50;82.04
68578;SHT31;61668;45.388;11.784;2022-10-31T05:35:18;12.49;82.10
68578;SHT31;61668;45.388;11.784;2022-10-31T05:37:52;12.49;82.12
68578;SHT31;61668;45.388;11.784;2022-10-31T05:40:18;12.49;82.10
68578;SHT31;61668;45.388;11.784;2022-10-31T05:42:45;12.47;82.00
68578;SHT31;61668;45.388;11.784;2022-10-31T05:45:13;12.47;82.00
68578;SHT31;61668;45.388;11.784;2022-10-31T05:47:40;12.45;82.17
68578;SHT31;61668;45.388;11.784;2022-10-31T05:50:07;12.45;82.19
68578;SHT31;61668;45.388;11.784;2022-10-31T05:52:35;12.46;82.23
68578;SHT31;61668;45.388;11.784;2022-10-31T05:55:00;12.46;82.17
68578;SHT31;61668;45.388;11.784;2022-10-31T05:57:26;12.47;82.20
68578;SHT31;61668;45.388;11.784;2022-10-31T05:59:54;12.47;82.20
68578;SHT31;61668;45.388;11.784;2022-10-31T06:02:19;12.47;82.11
68578;SHT31;61668;45.388;11.784;2022-10-31T06:04:45;12.47;82.09
68578;SHT31;61668;45.388;11.784;2022-10-31T06:07:11;12.47;82.04
68578;SHT31;61668;45.388;11.784;2022-10-31T06:09:36;12.49;82.06
68578;SHT31;61668;45.388;11.784;2022-10-31T06:12:02;12.49;82.02
68578;SHT31;61668;45.388;11.784;2022-10-31T06:14:28;12.51;82.10
68578;SHT31;61668;45.388;11.784;2022-10-31T06:16:53;12.53;82.11
68578;SHT31;61668;45.388;11.784;2022-10-31T06:19:20;12.58;82.21
68578;SHT31;61668;45.388;11.784;2022-10-31T06:21:45;12.61;82.18
68578;SHT31;61668;45.388;11.784;2022-10-31T06:24:11;12.66;82.20
68578;SHT31;61668;45.388;11.784;2022-10-31T06:26:36;12.71;82.17
68578;SHT31;61668;45.388;11.784;2022-10-31T06:29:02;12.76;82.05
68578;SHT31;61668;45.388;11.784;2022-10-31T06:31:27;12.83;81.93
68578;SHT31;61668;45.388;11.784;2022-10-31T06:33:53;12.85;81.82
68578;SHT31;61668;45.388;11.784;2022-10-31T06:36:18;12.87;81.91
68578;SHT31;61668;45.388;11.784;2022-10-31T06:38:44;12.92;82.00
68578;SHT31;61668;45.388;11.784;2022-10-31T06:41:09;12.96;82.08
68578;SHT31;61668;45.388;11.784;2022-10-31T06:43:35;13.02;82.13
68578;SHT31;61668;45.388;11.784;2022-10-31T06:46:03;13.09;82.10
68578;SHT31;61668;45.388;11.784;2022-10-31T06:48:30;13.15;82.06
68578;SHT31;61668;45.388;11.784;2022-10-31T06:50:57;13.22;82.10
68578;SHT31;61668;45.388;11.784;2022-10-31T06:53:26;13.29;81.94
68578;SHT31;61668;45.388;11.784;2022-10-31T06:55:55;13.32;81.86
68578;SHT31;61668;45.388;11.784;2022-10-31T06:58:21;13.36;81.87
68578;SHT31;61668;45.388;11.784;2022-10-31T07:00:47;13.39;81.82
68578;SHT31;61668;45.388;11.784;2022-10-31T07:03:13;13.41;81.82
68578;SHT31;61668;45.388;11.784;2022-10-31T07:05:40;13.44;81.79
68578;SHT31;61668;45.388;11.784;2022-10-31T07:08:08;13.47;81.85
68578;SHT31;61668;45.388;11.784;2022-10-31T07:10:36;13.53;81.98
68578;SHT31;61668;45.388;11.784;2022-10-31T07:13:05;13.60;82.19
68578;SHT31;61668;45.388;11.784;2022-10-31T07:15:35;13.71;82.23
68578;SHT31;61668;45.388;11.784;2022-10-31T07:18:03;13.86;82.08
68578;SHT31;61668;45.388;11.784;2022-10-31T07:20:32;14.05;81.99
68578;SHT31;61668;45.388;11.784;2022-10-31T07:22:58;14.20;81.89
68578;SHT31;61668;45.388;11.784;2022-10-31T07:25:25;14.37;81.98
68578;SHT31;61668;45.388;11.784;2022-10-31T07:27:51;14.54;81.93
68578;SHT31;61668;45.388;11.784;2022-10-31T07:30:17;14.75;81.81
68578;SHT31;61668;45.388;11.784;2022-10-31T07:32:44;15.02;81.52
68578;SHT31;61668;45.388;11.784;2022-10-31T07:35:13;15.31;81.19
68578;SHT31;61668;45.388;11.784;2022-10-31T07:37:41;15.61;80.84
68578;SHT31;61668;45.388;11.784;2022-10-31T07:40:07;15.95;80.47
68578;SHT31;61668;45.388;11.784;2022-10-31T07:42:35;16.29;79.87
68578;SHT31;61668;45.388;11.784;2022-10-31T07:45:05;16.66;79.48
68578;SHT31;61668;45.388;11.784;2022-10-31T07:47:40;17.05;78.86
68578;SHT31;61668;45.388;11.784;2022-10-31T07:50:15;17.46;78.12
68578;SHT31;61668;45.388;11.784;2022-10-31T07:52:47;17.80;77.06
68578;SHT31;61668;45.388;11.784;2022-10-31T07:55:13;18.15;76.68
68578;SHT31;61668;45.388;11.784;2022-10-31T07:57:39;18.51;75.99
68578;SHT31;61668;45.388;11.784;2022-10-31T08:00:06;18.85;75.33
68578;SHT31;61668;45.388;11.784;2022-10-31T08:02:34;19.20;74.43
68578;SHT31;61668;45.388;11.784;2022-10-31T08:05:00;19.51;73.40
68578;SHT31;61668;45.388;11.784;2022-10-31T08:07:27;19.82;72.75
68578;SHT31;61668;45.388;11.784;2022-10-31T08:09:53;20.14;72.07
68578;SHT31;61668;45.388;11.784;2022-10-31T08:12:20;20.49;71.66
68578;SHT31;61668;45.388;11.784;2022-10-31T08:14:46;20.92;70.91
68578;SHT31;61668;45.388;11.784;2022-10-31T08:17:12;21.33;69.89
68578;SHT31;61668;45.388;11.784;2022-10-31T08:19:37;21.69;69.09
68578;SHT31;61668;45.388;11.784;2022-10-31T08:22:03;22.04;68.37
68578;SHT31;61668;45.388;11.784;2022-10-31T08:24:28;22.44;67.60
68578;SHT31;61668;45.388;11.784;2022-10-31T08:26:54;22.79;66.34
68578;SHT31;61668;45.388;11.784;2022-10-31T08:29:19;23.10;65.66
68578;SHT31;61668;45.388;11.784;2022-10-31T08:31:45;23.43;64.43
68578;SHT31;61668;45.388;11.784;2022-10-31T08:34:10;23.73;63.93
68578;SHT31;61668;45.388;11.784;2022-10-31T08:36:36;24.04;63.35
68578;SHT31;61668;45.388;11.784;2022-10-31T08:39:01;24.36;62.60
68578;SHT31;61668;45.388;11.784;2022-10-31T08:41:28;24.69;61.32
68578;SHT31;61668;45.388;11.784;2022-10-31T08:43:54;25.00;60.59
68578;SHT31;61668;45.388;11.784;2022-10-31T08:46:20;25.28;59.41
68578;SHT31;61668;45.388;11.784;2022-10-31T08:48:48;25.54;58.99
68578;SHT31;61668;45.388;11.784;2022-10-31T08:51:14;25.84;58.59
68578;SHT31;61668;45.388;11.784;2022-10-31T08:53:40;26.17;57.82
68578;SHT31;61668;45.388;11.784;2022-10-31T08:56:05;26.51;56.98
68578;SHT31;61668;45.388;11.784;2022-10-31T08:58:31;26.78;56.17
68578;SHT31;61668;45.388;11.784;2022-10-31T09:00:58;27.02;55.37
68578;SHT31;61668;45.388;11.784;2022-10-31T09:03:26;27.09;55.16
68578;SHT31;61668;45.388;11.784;2022-10-31T09:05:56;26.89;55.08
68578;SHT31;61668;45.388;11.784;2022-10-31T09:08:24;26.58;55.03
68578;SHT31;61668;45.388;11.784;2022-10-31T09:10:50;26.33;55.31
68578;SHT31;61668;45.388;11.784;2022-10-31T09:13:17;26.13;55.65
68578;SHT31;61668;45.388;11.784;2022-10-31T09:15:45;25.92;55.63
68578;SHT31;61668;45.388;11.784;2022-10-31T09:18:13;25.64;55.72
68578;SHT31;61668;45.388;11.784;2022-10-31T09:20:46;25.43;55.78
68578;SHT31;61668;45.388;11.784;2022-10-31T09:23:14;25.26;55.58
68578;SHT31;61668;45.388;11.784;2022-10-31T09:25:43;25.08;55.58
68578;SHT31;61668;45.388;11.784;2022-10-31T09:28:13;24.93;55.65
68578;SHT31;61668;45.388;11.784;2022-10-31T09:30:41;24.76;55.06
68578;SHT31;61668;45.388;11.784;2022-10-31T09:33:10;24.60;55.16
68578;SHT31;61668;45.388;11.784;2022-10-31T09:35:37;24.48;55.39
68578;SHT31;61668;45.388;11.784;2022-10-31T09:38:04;24.37;55.34
68578;SHT31;61668;45.388;11.784;2022-10-31T09:52:26;23.72;55.85
68578;SHT31;61668;45.388;11.784;2022-10-31T09:54:58;23.61;56.06
68578;SHT31;61668;45.388;11.784;2022-10-31T09:57:34;23.52;55.94
68578;SHT31;61668;45.388;11.784;2022-10-31T10:00:05;23.43;56.14
68578;SHT31;61668;45.388;11.784;2022-10-31T10:02:39;23.39;56.60
68578;SHT31;61668;45.388;11.784;2022-10-31T10:05:14;23.32;56.67
68578;SHT31;61668;45.388;11.784;2022-10-31T10:10:50;23.26;57.03
68578;SHT31;61668;45.388;11.784;2022-10-31T10:16:06;23.10;56.54
68578;SHT31;61668;45.388;11.784;2022-10-31T10:22:18;22.94;57.16
68578;SHT31;61668;45.388;11.784;2022-10-31T10:25:22;22.87;57.06
68578;SHT31;61668;45.388;11.784;2022-10-31T10:27:59;22.81;56.92
68578;SHT31;61668;45.388;11.784;2022-10-31T10:36:50;22.69;56.05
68578;SHT31;61668;45.388;11.784;2022-10-31T10:39:28;22.66;55.95
68578;SHT31;61668;45.388;11.784;2022-10-31T10:42:04;22.64;56.49
68578;SHT31;61668;45.388;11.784;2022-10-31T10:44:56;22.63;56.55
68578;SHT31;61668;45.388;11.784;2022-10-31T10:47:43;22.61;56.49
68578;SHT31;61668;45.388;11.784;2022-10-31T10:50:20;22.60;56.74
68578;SHT31;61668;45.388;11.784;2022-10-31T10:53:12;22.60;57.17
68578;SHT31;61668;45.388;11.784;2022-10-31T10:59:46;22.61;57.22
68578;SHT31;61668;45.388;11.784;2022-10-31T11:02:16;22.60;57.17
68578;SHT31;61668;45.388;11.784;2022-10-31T11:04:49;22.61;57.33
68578;SHT31;61668;45.388;11.784;2022-10-31T11:07:18;22.62;57.57
68578;SHT31;61668;45.388;11.784;2022-10-31T11:09:43;22.62;57.86
68578;SHT31;61668;45.388;11.784;2022-10-31T11:14:59;22.62;57.67
68578;SHT31;61668;45.388;11.784;2022-10-31T11:22:36;22.67;57.85
68578;SHT31;61668;45.388;11.784;2022-10-31T11:27:45;22.74;57.87
68578;SHT31;61668;45.388;11.784;2022-10-31T11:30:12;22.76;57.84
68578;SHT31;61668;45.388;11.784;2022-10-31T11:32:45;22.79;57.83
68578;SHT31;61668;45.388;11.784;2022-10-31T11:35:16;22.82;58.13
68578;SHT31;61668;45.388;11.784;2022-10-31T11:37:44;22.85;58.40
68578;SHT31;61668;45.388;11.784;2022-10-31T11:40:16;22.88;58.25
68578;SHT31;61668;45.388;11.784;2022-10-31T11:42:43;22.92;58.28
68578;SHT31;61668;45.388;11.784;2022-10-31T11:45:15;22.95;57.84
68578;SHT31;61668;45.388;11.784;2022-10-31T11:47:44;22.97;57.87
68578;SHT31;61668;45.388;11.784;2022-10-31T11:50:24;23.01;57.87
68578;SHT31;61668;45.388;11.784;2022-10-31T11:53:01;23.07;57.98
68578;SHT31;61668;45.388;11.784;2022-10-31T11:55:35;23.11;58.02
68578;SHT31;61668;45.388;11.784;2022-10-31T11:58:03;23.20;57.93
68578;SHT31;61668;45.388;11.784;2022-10-31T12:00:31;23.27;57.70
68578;SHT31;61668;45.388;11.784;2022-10-31T12:05:47;23.38;57.51
68578;SHT31;61668;45.388;11.784;2022-10-31T12:08:22;23.42;57.74
68578;SHT31;61668;45.388;11.784;2022-10-31T12:10:59;23.46;57.73
68578;SHT31;61668;45.388;11.784;2022-10-31T12:23:21;23.62;57.29
68578;SHT31;61668;45.388;11.784;2022-10-31T12:28:23;23.71;57.40
68578;SHT31;61668;45.388;11.784;2022-10-31T12:34:06;23.79;57.37
68578;SHT31;61668;45.388;11.784;2022-10-31T12:48:10;23.96;57.48
68578;SHT31;61668;45.388;11.784;2022-10-31T12:51:29;24.00;57.53
68578;SHT31;61668;45.388;11.784;2022-10-31T12:54:29;24.04;57.29
68578;SHT31;61668;45.388;11.784;2022-10-31T13:00:18;24.11;57.05
68578;SHT31;61668;45.388;11.784;2022-10-31T13:02:56;24.13;57.13
68578;SHT31;61668;45.388;11.784;2022-10-31T13:05:29;24.15;57.11
68578;SHT31;61668;45.388;11.784;2022-10-31T13:08:04;24.15;57.23
68578;SHT31;61668;45.388;11.784;2022-10-31T13:10:40;24.15;57.23
68578;SHT31;61668;45.388;11.784;2022-10-31T13:15:46;24.16;57.24
68578;SHT31;61668;45.388;11.784;2022-10-31T13:21:18;24.14;57.52
68578;SHT31;61668;45.388;11.784;2022-10-31T13:23:51;24.12;57.51
68578;SHT31;61668;45.388;11.784;2022-10-31T13:26:28;24.11;57.14
68578;SHT31;61668;45.388;11.784;2022-10-31T13:29:09;24.11;57.11
68578;SHT31;61668;45.388;11.784;2022-10-31T13:31:45;24.11;57.28
68578;SHT31;61668;45.388;11.784;2022-10-31T13:34:17;24.11;57.35
68578;SHT31;61668;45.388;11.784;2022-10-31T13:48:58;24.17;57.33
68578;SHT31;61668;45.388;11.784;2022-10-31T13:51:26;24.19;57.21
68578;SHT31;61668;45.388;11.784;2022-10-31T13:54:19;24.19;57.08
68578;SHT31;61668;45.388;11.784;2022-10-31T13:56:55;24.21;57.46
68578;SHT31;61668;45.388;11.784;2022-10-31T13:59:21;24.22;57.50
68578;SHT31;61668;45.388;11.784;2022-10-31T14:01:50;24.22;57.40
68578;SHT31;61668;45.388;11.784;2022-10-31T14:04:20;24.21;57.39
68578;SHT31;61668;45.388;11.784;2022-10-31T14:09:25;24.20;57.32
68578;SHT31;61668;45.388;11.784;2022-10-31T14:11:59;24.19;57.38
68578;SHT31;61668;45.388;11.784;2022-10-31T14:14:48;24.18;57.40
68578;SHT31;61668;45.388;11.784;2022-10-31T14:17:21;24.16;57.32
68578;SHT31;61668;45.388;11.784;2022-10-31T14:20:00;24.14;57.36
68578;SHT31;61668;45.388;11.784;2022-10-31T14:22:35;24.11;57.60
68578;SHT31;61668;45.388;11.784;2022-10-31T14:25:48;24.08;57.52
68578;SHT31;61668;45.388;11.784;2022-10-31T14:27:51;24.04;57.47
68578;SHT31;61668;45.388;11.784;2022-10-31T14:30:21;24.02;57.41
68578;SHT31;61668;45.388;11.784;2022-10-31T14:32:50;23.99;57.17
68578;SHT31;61668;45.388;11.784;2022-10-31T14:35:37;23.96;57.43
68578;SHT31;61668;45.388;11.784;2022-10-31T14:49:55;23.73;57.29
68578;SHT31;61668;45.388;11.784;2022-10-31T14:53:00;23.67;57.92
68578;SHT31;61668;45.388;11.784;2022-10-31T14:55:28;23.58;57.92
68578;SHT31;61668;45.388;11.784;2022-10-31T14:57:59;23.53;58.02
68578;SHT31;61668;45.388;11.784;2022-10-31T15:00:29;23.47;58.47
68578;SHT31;61668;45.388;11.784;2022-10-31T15:05:52;23.30;58.66
68578;SHT31;61668;45.388;11.784;2022-10-31T15:08:29;23.23;58.85
68578;SHT31;61668;45.388;11.784;2022-10-31T15:11:14;23.16;59.12
68578;SHT31;61668;45.388;11.784;2022-10-31T15:13:49;23.08;59.43
68578;SHT31;61668;45.388;11.784;2022-10-31T15:16:25;22.99;59.85
68578;SHT31;61668;45.388;11.784;2022-10-31T15:19:07;22.90;60.06
68578;SHT31;61668;45.388;11.784;2022-10-31T15:21:40;22.79;60.58
68578;SHT31;61668;45.388;11.784;2022-10-31T15:24:11;22.69;60.98
68578;SHT31;61668;45.388;11.784;2022-10-31T15:26:47;22.58;61.33
68578;SHT31;61668;45.388;11.784;2022-10-31T15:29:17;22.48;61.81
68578;SHT31;61668;45.388;11.784;2022-10-31T15:31:49;22.40;62.18
68578;SHT31;61668;45.388;11.784;2022-10-31T15:34:42;22.29;62.78
68578;SHT31;61668;45.388;11.784;2022-10-31T15:37:18;22.17;63.18
68578;SHT31;61668;45.388;11.784;2022-10-31T15:39:46;22.08;63.43
68578;SHT31;61668;45.388;11.784;2022-10-31T15:42:16;21.99;63.72
68578;SHT31;61668;45.388;11.784;2022-10-31T15:44:56;21.89;63.94
68578;SHT31;61668;45.388;11.784;2022-10-31T15:47:25;21.78;64.02
68578;SHT31;61668;45.388;11.784;2022-10-31T15:49:53;21.69;64.13
68578;SHT31;61668;45.388;11.784;2022-10-31T15:52:38;21.61;64.43
68578;SHT31;61668;45.388;11.784;2022-10-31T15:57:41;21.45;64.55
68578;SHT31;61668;45.388;11.784;2022-10-31T16:05:55;21.31;64.93
68578;SHT31;61668;45.388;11.784;2022-10-31T16:08:25;21.24;65.11
68578;SHT31;61668;45.388;11.784;2022-10-31T16:10:58;21.16;65.29
68578;SHT31;61668;45.388;11.784;2022-10-31T16:16:23;20.95;65.97
68578;SHT31;61668;45.388;11.784;2022-10-31T16:18:49;20.83;66.08
68578;SHT31;61668;45.388;11.784;2022-10-31T16:21:22;20.71;66.23
68578;SHT31;61668;45.388;11.784;2022-10-31T16:24:17;20.59;66.61
68578;SHT31;61668;45.388;11.784;2022-10-31T16:26:54;20.46;66.80
68578;SHT31;61668;45.388;11.784;2022-10-31T16:29:49;20.35;67.32
68578;SHT31;61668;45.388;11.784;2022-10-31T16:35:46;20.14;67.68
68578;SHT31;61668;45.388;11.784;2022-10-31T16:37:52;20.03;67.86
68578;SHT31;61668;45.388;11.784;2022-10-31T16:40:18;19.93;68.05
68578;SHT31;61668;45.388;11.784;2022-10-31T16:42:45;19.84;68.27
68578;SHT31;61668;45.388;11.784;2022-10-31T16:45:15;19.75;68.39
68578;SHT31;61668;45.388;11.784;2022-10-31T16:47:47;19.65;68.54
68578;SHT31;61668;45.388;11.784;2022-10-31T16:50:14;19.55;68.73
68578;SHT31;61668;45.388;11.784;2022-10-31T16:52:46;19.46;69.07
68578;SHT31;61668;45.388;11.784;2022-10-31T16:55:13;19.38;69.38
68578;SHT31;61668;45.388;11.784;2022-10-31T16:57:44;19.30;69.62
68578;SHT31;61668;45.388;11.784;2022-10-31T17:00:16;19.23;69.76
68578;SHT31;61668;45.388;11.784;2022-10-31T17:02:48;19.13;69.95
68578;SHT31;61668;45.388;11.784;2022-10-31T17:05:16;19.04;70.18
68578;SHT31;61668;45.388;11.784;2022-10-31T17:07:44;18.95;70.29
68578;SHT31;61668;45.388;11.784;2022-10-31T17:10:10;18.88;70.48
68578;SHT31;61668;45.388;11.784;2022-10-31T17:12:39;18.81;70.62
68578;SHT31;61668;45.388;11.784;2022-10-31T17:15:30;18.75;70.83
68578;SHT31;61668;45.388;11.784;2022-10-31T17:18:00;18.70;71.00
68578;SHT31;61668;45.388;11.784;2022-10-31T17:20:26;18.67;71.23
68578;SHT31;61668;45.388;11.784;2022-10-31T17:22:55;18.65;71.38
68578;SHT31;61668;45.388;11.784;2022-10-31T17:25:23;18.62;71.50
68578;SHT31;61668;45.388;11.784;2022-10-31T17:27:55;18.61;71.79
68578;SHT31;61668;45.388;11.784;2022-10-31T17:30:21;18.59;71.96
68578;SHT31;61668;45.388;11.784;2022-10-31T17:32:48;18.58;72.07
68578;SHT31;61668;45.388;11.784;2022-10-31T17:35:15;18.55;72.21
68578;SHT31;61668;45.388;11.784;2022-10-31T17:37:42;18.54;72.38
68578;SHT31;61668;45.388;11.784;2022-10-31T17:40:10;18.52;72.45
68578;SHT31;61668;45.388;11.784;2022-10-31T17:42:41;18.50;72.54
68578;SHT31;61668;45.388;11.784;2022-10-31T17:45:07;18.48;72.82
68578;SHT31;61668;45.388;11.784;2022-10-31T17:47:34;18.44;73.02
68578;SHT31;61668;45.388;11.784;2022-10-31T17:49:59;18.39;73.09
68578;SHT31;61668;45.388;11.784;2022-10-31T17:52:25;18.36;73.10
68578;SHT31;61668;45.388;11.784;2022-10-31T17:54:51;18.33;73.21
68578;SHT31;61668;45.388;11.784;2022-10-31T17:57:16;18.31;73.32
68578;SHT31;61668;45.388;11.784;2022-10-31T17:59:42;18.28;73.35
68578;SHT31;61668;45.388;11.784;2022-10-31T18:02:11;18.26;73.50
68578;SHT31;61668;45.388;11.784;2022-10-31T18:04:37;18.21;73.57
68578;SHT31;61668;45.388;11.784;2022-10-31T18:07:04;18.17;73.62
68578;SHT31;61668;45.388;11.784;2022-10-31T18:09:31;18.13;73.75
68578;SHT31;61668;45.388;11.784;2022-10-31T18:11:56;18.06;73.82
68578;SHT31;61668;45.388;11.784;2022-10-31T18:14:22;17.98;73.81
68578;SHT31;61668;45.388;11.784;2022-10-31T18:16:48;17.93;73.88